Time;durP1;ratioP1;P1;durP2;ratioP2;P2;SDS_P1;SDS_P2;PMS_P1;PMS_P2;Temp;Humidity;BMP_temperature;BMP_pressure;BME280_temperature;BME280_humidity;BME280_pressure;Samples;Min_cycle;Max_cycle;Signal;HPM_P1;HPM_P2
2022/12/24 00:01:36;;;;;;;;;35.50;33.00;;;;;16.13;42.03;98998.09;5007044;28;8892;-78
2022/12/24 00:04:04;;;;;;;;;38.50;34.50;;;;;15.94;42.18;99001.28;4994228;28;9004;-79
2022/12/24 00:06:33;;;;;;;;;39.25;36.25;;;;;15.93;42.44;99001.34;5010854;28;8863;-76
2022/12/24 00:09:02;;;;;;;;;40.50;36.25;;;;;15.90;42.59;99001.44;5012596;28;8856;-78
2022/12/24 00:11:31;;;;;;;;;34.80;33.20;;;;;15.99;42.20;99003.75;5031990;28;8866;-80
2022/12/24 00:14:02;;;;;;;;;32.60;29.80;;;;;16.03;42.12;99007.16;4981151;28;8855;-79
2022/12/24 00:16:30;;;;;;;;;34.00;30.00;;;;;16.07;42.09;99014.94;5046296;28;8851;-79
2022/12/24 00:18:59;;;;;;;;;35.80;34.00;;;;;16.13;41.88;99011.25;5014370;28;8871;-79
2022/12/24 00:21:28;;;;;;;;;26.20;23.80;;;;;16.12;41.80;99023.53;5001040;28;8875;-79
2022/12/24 00:23:56;;;;;;;;;30.20;28.40;;;;;16.18;41.80;99015.44;4981649;28;8926;-78
2022/12/24 00:26:25;;;;;;;;;33.00;30.00;;;;;16.12;41.84;99010.38;4997263;28;8855;-81
2022/12/24 00:28:54;;;;;;;;;36.20;34.40;;;;;16.14;41.99;99003.31;5029667;28;8856;-77
2022/12/24 00:31:24;;;;;;;;;35.80;33.80;;;;;16.10;41.99;99013.94;4999356;28;8863;-78
2022/12/24 00:33:53;;;;;;;;;40.60;31.60;;;;;16.16;41.92;99014.63;5034347;28;8871;-80
2022/12/24 00:36:22;;;;;;;;;33.20;31.60;;;;;16.16;41.85;99013.75;5045298;28;8879;-80
2022/12/24 00:38:51;;;;;;;;;39.40;32.80;;;;;16.23;41.56;99019.69;5044628;28;9002;-78
2022/12/24 00:41:27;;;;;;;;;37.50;35.50;;;;;16.18;42.01;99015.44;5027921;28;9006;-79
2022/12/24 00:43:59;;;;;;;;;36.50;34.25;;;;;16.22;41.67;99013.56;5011094;28;8930;-77
2022/12/24 00:46:32;;;;;;;;;43.75;37.75;;;;;16.24;41.78;99009.13;5014063;28;8883;-79
2022/12/24 00:49:00;;;;;;;;;44.00;38.25;;;;;16.23;41.54;99006.53;5046519;28;8853;-81
2022/12/24 00:51:30;;;;;;;;;39.25;34.50;;;;;16.04;42.22;99004.50;5034506;28;8927;-84
2022/12/24 00:53:59;;;;;;;;;49.75;40.25;;;;;15.97;41.93;98997.69;5031742;28;8854;-77
2022/12/24 00:56:28;;;;;;;;;48.25;40.00;;;;;15.79;42.12;98999.13;5030295;28;9563;-77
2022/12/24 00:58:56;;;;;;;;;48.25;41.75;;;;;15.65;42.80;98996.91;5029619;28;8858;-78
2022/12/24 01:01:26;;;;;;;;;39.20;34.00;;;;;15.49;42.92;98991.22;4981162;28;8858;-77
2022/12/24 01:05:09;;;;;;;;;38.50;35.50;;;;;15.19;44.07;98982.47;5032644;28;8910;-79
2022/12/24 01:06:44;;;;;;;;;34.80;34.00;;;;;15.16;43.85;98987.78;5045868;28;8983;-77
2022/12/24 01:09:13;;;;;;;;;28.20;26.20;;;;;15.14;43.83;98989.63;5029288;28;8877;-78
2022/12/24 01:11:42;;;;;;;;;32.40;29.60;;;;;15.15;44.03;98986.09;5045477;28;8888;-78
2022/12/24 01:14:10;;;;;;;;;32.20;29.40;;;;;15.04;43.89;98994.25;5021597;28;8930;-79
2022/12/24 01:16:39;;;;;;;;;31.40;29.60;;;;;15.05;44.24;98989.88;5025974;28;8852;-82
2022/12/24 01:19:09;;;;;;;;;30.60;30.00;;;;;15.34;43.45;98981.16;5025849;28;8848;-77
2022/12/24 01:21:38;;;;;;;;;33.00;30.00;;;;;15.32;43.66;98978.59;5009042;28;8872;-78
2022/12/24 01:24:07;;;;;;;;;33.40;29.80;;;;;15.38;43.32;98980.16;5012465;28;8859;-78
2022/12/24 01:26:35;;;;;;;;;29.20;29.20;;;;;15.41;43.23;98982.72;5012104;28;9648;-78
2022/12/24 01:29:04;;;;;;;;;34.00;30.40;;;;;15.40;43.33;98979.22;5009344;28;8990;-78
2022/12/24 01:31:33;;;;;;;;;30.20;28.20;;;;;15.30;43.64;98976.91;5010100;28;8871;-79
2022/12/24 01:34:01;;;;;;;;;30.00;27.20;;;;;14.98;44.27;98974.28;5026354;28;8863;-81
2022/12/24 01:36:31;;;;;;;;;25.20;23.40;;;;;15.24;43.72;98963.97;5026450;28;8866;-80
2022/12/24 01:39:00;;;;;;;;;32.00;30.60;;;;;15.10;44.10;98974.84;5009623;28;8870;-79
2022/12/24 01:44:25;;;;;;;;;26.20;24.40;;;;;15.09;44.23;98981.03;5032888;28;8893;-77
2022/12/24 01:47:08;;;;;;;;;34.60;30.60;;;;;15.00;44.13;98969.00;5029557;28;8974;-77
2022/12/24 01:49:42;;;;;;;;;25.80;24.40;;;;;15.10;44.13;98966.97;5045737;28;9676;-77
2022/12/24 01:52:16;;;;;;;;;26.40;25.40;;;;;15.12;44.18;98965.16;5046256;28;8862;-80
2022/12/24 01:54:48;;;;;;;;;21.60;20.40;;;;;15.27;43.66;98959.47;5043620;28;8869;-81
2022/12/24 01:57:22;;;;;;;;;26.40;25.40;;;;;15.22;43.86;98953.50;5029538;28;8834;-79
2022/12/24 01:59:56;;;;;;;;;24.60;23.40;;;;;15.34;43.63;98954.91;5029336;28;8869;-77
2022/12/24 02:02:26;;;;;;;;;23.80;20.00;;;;;15.29;43.32;98957.69;5046598;28;8870;-79
2022/12/24 02:05:01;;;;;;;;;20.60;19.60;;;;;15.21;43.65;98960.50;5033658;28;8968;-80
2022/12/24 02:07:32;;;;;;;;;23.40;23.40;;;;;15.42;43.06;98968.66;5017114;28;8900;-80
2022/12/24 02:10:01;;;;;;;;;20.00;20.00;;;;;15.55;42.94;98963.91;5058703;28;8852;-78
2022/12/24 02:12:35;;;;;;;;;19.00;18.60;;;;;15.54;43.26;98975.34;5019261;28;8886;-78
2022/12/24 02:15:05;;;;;;;;;25.00;20.40;;;;;15.69;42.93;98984.50;5014176;28;8988;-77
2022/12/24 02:17:43;;;;;;;;;30.20;25.80;;;;;15.90;42.49;98983.03;4993786;28;8951;-80
2022/12/24 02:20:32;;;;;;;;;24.00;23.80;;;;;16.12;42.30;98989.34;5010812;28;8854;-76
2022/12/24 02:23:30;;;;;;;;;29.40;25.00;;;;;16.29;41.74;98985.28;5013194;28;8847;-79
2022/12/24 02:26:24;;;;;;;;;25.80;23.20;;;;;16.36;42.15;98989.44;4985159;28;8901;-78
2022/12/24 02:29:17;;;;;;;;;26.80;21.60;;;;;16.42;42.00;99002.38;5027150;28;9604;-80
2022/12/24 02:31:53;;;;;;;;;19.40;18.20;;;;;16.46;41.56;99008.41;5026740;28;8875;-78
2022/12/24 02:34:30;;;;;;;;;24.60;21.00;;;;;16.53;41.50;99012.56;5008612;28;8835;-80
2022/12/24 02:37:05;;;;;;;;;29.40;24.40;;;;;16.54;41.69;99011.63;5023737;28;8880;-78
2022/12/24 02:39:40;;;;;;;;;22.00;21.40;;;;;16.58;41.92;99015.91;5025945;28;8859;-79
2022/12/24 02:42:12;;;;;;;;;25.80;21.20;;;;;16.54;41.62;99015.16;5008884;28;8871;-78
2022/12/24 02:44:45;;;;;;;;;24.40;23.80;;;;;16.61;41.71;99020.19;5025666;28;8924;-79
2022/12/24 02:47:17;;;;;;;;;21.00;18.80;;;;;16.67;41.78;99018.25;4997336;28;8981;-79
2022/12/24 02:49:48;;;;;;;;;22.80;21.20;;;;;16.66;41.59;99023.56;5045428;28;8854;-77
2022/12/24 02:52:30;;;;;;;;;25.80;21.40;;;;;16.76;41.17;99024.94;5009236;28;8938;-79
2022/12/24 02:55:06;;;;;;;;;20.40;19.40;;;;;16.67;41.96;99028.78;5043991;28;8848;-79
2022/12/24 02:57:50;;;;;;;;;20.80;19.40;;;;;16.82;41.77;99032.66;5012611;28;8860;-79
2022/12/24 03:00:22;;;;;;;;;28.00;22.40;;;;;16.79;41.79;99027.47;5012417;28;8832;-79
2022/12/24 03:03:16;;;;;;;;;20.80;19.60;;;;;17.01;41.79;99019.72;5028945;28;8872;-77
2022/12/24 03:05:49;;;;;;;;;23.60;21.60;;;;;16.89;41.76;99020.16;5028376;28;8953;-80
2022/12/24 03:08:32;;;;;;;;;18.20;17.60;;;;;16.93;42.00;99014.72;4979884;28;8856;-77
2022/12/24 03:11:08;;;;;;;;;21.00;19.80;;;;;16.88;42.26;99021.94;4992641;28;8889;-80
2022/12/24 03:13:37;;;;;;;;;16.40;14.80;;;;;16.86;41.99;99030.78;5010825;28;8920;-77
2022/12/24 03:16:08;;;;;;;;;21.00;18.80;;;;;16.84;41.87;99030.88;5031189;28;8874;-80
2022/12/24 03:18:42;;;;;;;;;22.80;19.00;;;;;16.85;42.26;99026.44;5032452;28;8847;-79
2022/12/24 03:21:17;;;;;;;;;24.40;22.60;;;;;16.89;41.93;99028.91;5014256;28;9970;-78
2022/12/24 03:23:46;;;;;;;;;26.80;23.00;;;;;16.86;41.58;99026.41;5011100;28;8981;-80
2022/12/24 03:26:17;;;;;;;;;18.80;18.80;;;;;16.84;41.25;99022.06;5010270;28;8842;-77
2022/12/24 03:28:47;;;;;;;;;21.20;20.40;;;;;16.84;41.39;99017.69;5012944;28;8887;-80
2022/12/24 03:31:17;;;;;;;;;22.00;20.00;;;;;16.89;41.96;99021.00;5021119;28;8921;-80
2022/12/24 03:33:48;;;;;;;;;20.60;20.20;;;;;16.90;41.94;99006.06;5029659;28;8872;-79
2022/12/24 03:36:17;;;;;;;;;21.40;21.20;;;;;16.80;41.93;98989.69;5009643;28;8885;-80
2022/12/24 03:38:46;;;;;;;;;20.60;18.60;;;;;16.70;41.91;98986.53;5011189;28;8900;-83
2022/12/24 03:41:15;;;;;;;;;23.60;20.20;;;;;16.60;42.08;98986.88;5011107;28;8842;-79
2022/12/24 03:43:43;;;;;;;;;25.40;23.20;;;;;16.15;42.93;98975.22;5010378;28;9016;-80
2022/12/24 03:46:12;;;;;;;;;22.20;21.00;;;;;16.23;42.77;98985.50;4970082;28;8839;-80
2022/12/24 03:48:40;;;;;;;;;21.00;20.00;;;;;16.32;43.31;98983.41;4937590;28;9632;-80
2022/12/24 03:51:17;;;;;;;;;27.00;23.40;;;;;16.42;43.26;98993.63;4969872;28;8863;-76
2022/12/24 03:53:46;;;;;;;;;21.80;20.00;;;;;16.44;43.11;99008.47;4921592;28;8902;-79
2022/12/24 03:56:15;;;;;;;;;25.20;21.60;;;;;16.52;43.08;99011.72;4984089;28;9637;-79
2022/12/24 03:58:44;;;;;;;;;21.20;20.80;;;;;16.57;42.84;99006.28;5006417;28;8869;-78
2022/12/24 04:01:13;;;;;;;;;20.00;17.80;;;;;16.64;42.13;99001.69;5006186;28;8841;-79
2022/12/24 04:03:42;;;;;;;;;22.40;20.40;;;;;16.69;42.70;99002.38;4969957;28;9629;-78
2022/12/24 04:06:12;;;;;;;;;18.60;17.80;;;;;16.70;42.65;99009.38;4986198;28;8863;-84
2022/12/24 04:08:42;;;;;;;;;21.80;19.40;;;;;16.70;42.65;99022.53;4982680;28;9034;-81
2022/12/24 04:11:14;;;;;;;;;27.40;22.60;;;;;16.70;42.82;99033.91;5005911;28;8865;-77
2022/12/24 04:13:43;;;;;;;;;22.40;20.20;;;;;16.77;42.77;99037.22;4990505;28;8903;-76
2022/12/24 04:16:14;;;;;;;;;20.80;20.20;;;;;16.81;42.17;99038.81;4990388;28;8869;-79
2022/12/24 04:18:43;;;;;;;;;22.60;21.40;;;;;16.84;42.14;99037.88;4990688;28;8861;-81
2022/12/24 04:21:12;;;;;;;;;26.00;22.20;;;;;16.86;42.07;99043.94;4985390;28;8961;-79
2022/12/24 04:23:43;;;;;;;;;22.80;21.20;;;;;16.91;42.66;99052.56;4982082;28;8942;-81
2022/12/24 04:26:27;;;;;;;;;23.40;22.80;;;;;17.03;42.01;99052.16;4982917;28;8868;-81
2022/12/24 04:29:05;;;;;;;;;24.00;23.00;;;;;16.97;42.50;99054.13;4972888;28;9062;-78
2022/12/24 04:31:35;;;;;;;;;26.00;22.80;;;;;16.97;42.45;99052.34;4987833;28;8842;-77
2022/12/24 04:34:03;;;;;;;;;27.60;23.60;;;;;16.90;43.30;99051.72;4987004;28;8882;-77
2022/12/24 04:36:32;;;;;;;;;23.80;21.40;;;;;16.89;43.71;99057.88;4975502;28;8911;-77
2022/12/24 04:39:02;;;;;;;;;25.60;24.40;;;;;16.89;44.20;99055.25;4973849;28;8877;-76
2022/12/24 04:41:32;;;;;;;;;20.20;20.20;;;;;16.90;44.84;99059.63;4988327;28;8866;-77
2022/12/24 04:44:01;;;;;;;;;22.40;21.40;;;;;16.80;44.51;99059.94;4987796;28;8976;-80
2022/12/24 04:46:30;;;;;;;;;27.40;23.00;;;;;16.76;44.41;99051.28;5022524;28;9578;-79
2022/12/24 04:49:00;;;;;;;;;28.60;26.40;;;;;16.70;44.58;99049.72;4990374;28;8873;-79
2022/12/24 04:51:29;;;;;;;;;28.80;26.60;;;;;16.66;45.11;99058.63;5007007;28;8925;-75
2022/12/24 04:53:58;;;;;;;;;24.20;22.60;;;;;16.69;44.93;99050.63;5025035;28;8987;-78
2022/12/24 04:56:32;;;;;;;;;26.00;25.00;;;;;16.72;45.56;99049.66;5008573;28;8853;-80
2022/12/24 04:59:02;;;;;;;;;22.00;20.20;;;;;16.59;45.42;99046.56;5022339;28;8884;-77
2022/12/24 05:01:32;;;;;;;;;37.25;34.00;;;;;16.65;45.48;99045.50;5003131;28;8855;-79
2022/12/24 05:04:01;;;;;;;;;31.00;27.40;;;;;16.50;44.62;99037.22;5024626;28;8889;-79
2022/12/24 05:06:32;;;;;;;;;29.40;26.40;;;;;16.20;45.06;99041.72;5010845;28;8837;-76
2022/12/24 05:09:01;;;;;;;;;25.00;22.00;;;;;16.03;45.86;99036.97;5010195;28;9639;-76
2022/12/24 05:11:32;;;;;;;;;22.20;20.00;;;;;16.04;45.90;99036.06;5028609;28;8838;-80
2022/12/24 05:14:00;;;;;;;;;26.60;24.60;;;;;15.82;45.86;99025.31;5026508;28;8884;-76
2022/12/24 05:16:29;;;;;;;;;30.20;29.20;;;;;15.43;47.06;99030.84;5008777;28;8836;-78
2022/12/24 05:18:58;;;;;;;;;21.80;19.80;;;;;15.47;47.33;99035.09;5026365;28;8949;-78
2022/12/24 05:21:26;;;;;;;;;21.80;21.80;;;;;15.63;46.94;99038.13;5025063;28;9633;-80
2022/12/24 05:26:46;;;;;;;;;19.60;19.60;;;;;15.68;46.97;99030.97;4981959;28;8855;-82
2022/12/24 05:29:15;;;;;;;;;24.40;22.80;;;;;15.81;46.66;99033.28;5051918;28;8883;-79
2022/12/24 05:31:45;;;;;;;;;23.40;20.60;;;;;15.98;46.25;99036.25;5019554;28;8860;-82
2022/12/24 05:34:15;;;;;;;;;23.80;23.80;;;;;16.04;46.00;99030.78;5024821;28;8892;-80
2022/12/24 05:36:45;;;;;;;;;20.80;20.20;;;;;16.14;45.69;99032.25;5006499;28;8946;-79
2022/12/24 05:39:15;;;;;;;;;21.20;19.60;;;;;16.24;45.79;99024.91;5021594;28;9005;-77
2022/12/24 05:41:47;;;;;;;;;28.40;25.40;;;;;16.27;45.54;99023.94;4952217;28;8955;-80
2022/12/24 05:44:16;;;;;;;;;3.00;1.60;;;;;16.13;45.90;99016.50;5022446;28;9686;-77
2022/12/24 05:46:45;;;;;;;;;22.60;20.20;;;;;16.01;45.73;99014.25;5042053;28;8882;-78
2022/12/24 05:49:14;;;;;;;;;20.00;19.20;;;;;15.56;47.52;99016.44;4985648;28;9426;-78
2022/12/24 05:51:43;;;;;;;;;21.40;21.20;;;;;15.64;47.27;99016.19;4988553;28;8874;-78
2022/12/24 05:54:12;;;;;;;;;24.80;23.20;;;;;15.15;48.74;99017.59;4988411;28;9655;-75
2022/12/24 05:56:41;;;;;;;;;17.40;16.20;;;;;15.10;48.96;99022.97;4988138;28;8854;-75
2022/12/24 05:59:11;;;;;;;;;18.80;17.20;;;;;15.23;48.57;99023.50;4989183;28;8834;-79
2022/12/24 06:01:44;;;;;;;;;17.00;16.20;;;;;15.32;48.35;99020.63;5005008;28;8858;-81
2022/12/24 06:04:13;;;;;;;;;17.20;16.80;;;;;15.19;48.85;99029.75;5002955;28;8866;-77
2022/12/24 06:06:42;;;;;;;;;15.20;15.20;;;;;15.31;48.63;99036.41;4988699;28;8881;-81
2022/12/24 06:09:10;;;;;;;;;16.20;15.20;;;;;15.08;49.33;99027.41;4988454;28;8862;-79
2022/12/24 06:11:39;;;;;;;;;18.20;18.20;;;;;15.33;49.11;99037.22;4987883;28;8866;-78
2022/12/24 06:14:07;;;;;;;;;17.40;16.80;;;;;15.29;49.41;99040.84;5000512;28;8858;-77
2022/12/24 06:16:37;;;;;;;;;18.00;16.00;;;;;15.69;48.40;99047.59;4985901;28;8950;-75
2022/12/24 06:19:06;;;;;;;;;21.20;18.80;;;;;15.82;47.97;99051.59;4984897;28;8869;-78
2022/12/24 06:21:35;;;;;;;;;18.00;18.00;;;;;16.03;47.73;99055.38;5022958;28;8945;-81
2022/12/24 06:24:04;;;;;;;;;22.40;22.40;;;;;16.17;47.33;99068.09;5009753;28;8879;-76
2022/12/24 06:26:33;;;;;;;;;23.80;19.60;;;;;16.28;47.36;99067.78;5025903;28;9616;-81
2022/12/24 06:29:01;;;;;;;;;26.20;22.20;;;;;16.42;47.04;99073.44;5010541;28;8864;-80
2022/12/24 06:31:30;;;;;;;;;28.20;24.20;;;;;16.51;46.78;99075.78;5026764;28;8890;-77
2022/12/24 06:34:00;;;;;;;;;22.60;22.40;;;;;16.58;47.27;99087.00;5031344;28;9014;-80
2022/12/24 06:36:29;;;;;;;;;22.40;19.20;;;;;16.56;47.39;99107.25;5044085;28;8847;-78
2022/12/24 06:38:57;;;;;;;;;22.00;19.40;;;;;16.63;47.40;99111.38;5029819;28;8835;-80
2022/12/24 06:41:26;;;;;;;;;21.00;19.80;;;;;16.60;47.85;99115.88;5018359;28;8882;-78
2022/12/24 06:43:55;;;;;;;;;28.00;21.00;;;;;16.68;48.09;99122.63;5046643;28;9600;-77
2022/12/24 06:46:24;;;;;;;;;22.20;21.40;;;;;16.73;47.75;99123.34;5024239;28;8872;-77
2022/12/24 06:48:54;;;;;;;;;27.80;25.60;;;;;16.75;48.04;99129.41;5026923;28;8851;-80
2022/12/24 06:51:24;;;;;;;;;20.00;19.00;;;;;16.77;47.66;99124.09;5003737;28;8854;-78
2022/12/24 06:53:53;;;;;;;;;19.20;18.80;;;;;16.84;48.21;99122.16;5025294;28;8859;-80
2022/12/24 06:56:22;;;;;;;;;27.60;26.60;;;;;16.86;48.31;99130.84;5040700;28;8860;-77
2022/12/24 06:58:51;;;;;;;;;28.60;27.40;;;;;16.89;47.53;99131.63;5031579;28;8866;-83
2022/12/24 07:01:20;;;;;;;;;21.60;19.60;;;;;16.88;47.69;99145.72;5031609;28;8858;-76
2022/12/24 07:03:49;;;;;;;;;25.80;23.00;;;;;16.88;47.77;99153.63;5046204;28;8981;-79
2022/12/24 07:06:21;;;;;;;;;29.60;27.60;;;;;16.83;47.87;99160.81;5064218;28;8873;-79
2022/12/24 07:08:51;;;;;;;;;26.40;25.00;;;;;16.83;48.11;99158.16;5031263;28;9776;-77
2022/12/24 07:11:21;;;;;;;;;25.40;24.20;;;;;16.86;48.25;99159.81;5047190;28;8965;-77
2022/12/24 07:13:49;;;;;;;;;30.40;28.40;;;;;16.83;47.97;99152.03;5014795;28;8850;-81
2022/12/24 07:16:18;;;;;;;;;23.20;22.80;;;;;16.87;48.21;99161.56;5047470;28;8936;-80
2022/12/24 07:18:47;;;;;;;;;28.80;27.80;;;;;16.86;48.29;99167.72;5001310;28;8865;-81
2022/12/24 07:21:16;;;;;;;;;30.60;28.00;;;;;16.88;48.67;99172.06;5030846;28;8854;-79
2022/12/24 07:23:45;;;;;;;;;28.60;27.00;;;;;16.85;48.87;99173.91;5027421;28;8856;-79
2022/12/24 07:26:15;;;;;;;;;28.80;25.80;;;;;16.74;48.89;99174.22;4990308;28;8866;-80
2022/12/24 07:28:43;;;;;;;;;27.20;26.40;;;;;16.77;49.36;99172.34;5047830;28;8854;-80
2022/12/24 07:31:12;;;;;;;;;30.60;29.80;;;;;16.80;49.18;99175.81;5027900;28;8848;-78
2022/12/24 07:33:40;;;;;;;;;26.60;25.60;;;;;16.77;49.43;99177.63;5026698;28;8953;-80
2022/12/24 07:36:16;;;;;;;;;32.40;31.00;;;;;16.84;49.50;99177.44;5053387;28;9426;-78
2022/12/24 07:38:44;;;;;;;;;33.00;30.60;;;;;16.72;49.88;99178.69;5022340;28;9040;-78
2022/12/24 07:41:14;;;;;;;;;34.00;33.20;;;;;16.68;50.27;99171.78;5004177;28;8838;-80
2022/12/24 07:43:43;;;;;;;;;38.25;36.00;;;;;16.65;50.38;99180.63;5027104;28;8848;-79
2022/12/24 07:46:12;;;;;;;;;51.75;42.50;;;;;16.62;51.06;99177.25;5045259;28;8852;-80
2022/12/24 07:48:40;;;;;;;;;47.25;39.25;;;;;16.58;51.41;99179.13;5030872;28;8875;-77
2022/12/24 07:51:09;;;;;;;;;43.50;36.75;;;;;16.57;50.40;99175.59;5029477;28;8867;-80
2022/12/24 07:53:38;;;;;;;;;36.75;34.50;;;;;16.55;51.38;99174.78;5016355;28;9570;-79
2022/12/24 07:56:07;;;;;;;;;44.25;35.75;;;;;16.54;50.92;99182.72;5010396;28;8932;-81
2022/12/24 07:58:42;;;;;;;;;42.00;36.25;;;;;16.53;51.29;99179.25;5009592;28;8874;-77
2022/12/24 08:01:11;;;;;;;;;41.00;35.75;;;;;16.51;51.12;99188.97;5010519;28;8924;-79
2022/12/24 08:03:40;;;;;;;;;41.25;36.75;;;;;16.42;50.90;99183.13;5052012;28;8879;-80
2022/12/24 08:06:13;;;;;;;;;49.50;40.25;;;;;16.48;50.60;99183.81;5012321;28;9676;-78
2022/12/24 08:08:41;;;;;;;;;42.00;36.75;;;;;16.17;51.42;99186.47;5024480;28;9108;-77
2022/12/24 08:11:11;;;;;;;;;51.00;37.50;;;;;16.29;51.48;99195.78;5004494;28;8854;-79
2022/12/24 08:13:41;;;;;;;;;39.25;34.50;;;;;16.36;50.83;99202.59;5011392;28;8881;-78
2022/12/24 08:16:10;;;;;;;;;48.75;40.25;;;;;16.39;50.68;99199.88;5029632;28;8943;-79
2022/12/24 08:18:39;;;;;;;;;49.25;41.00;;;;;16.40;50.25;99200.72;5012618;28;8861;-81
2022/12/24 08:21:09;;;;;;;;;45.25;37.75;;;;;16.47;50.72;99189.13;5027002;28;8848;-82
2022/12/24 08:23:37;;;;;;;;;49.00;39.50;;;;;16.53;50.30;99186.28;5026322;28;8886;-78
2022/12/24 08:26:07;;;;;;;;;52.50;40.00;;;;;16.47;50.06;99187.34;5030193;28;8857;-81
2022/12/24 08:28:36;;;;;;;;;51.25;43.00;;;;;16.54;50.25;99188.88;5047402;28;8862;-79
2022/12/24 08:31:07;;;;;;;;;52.50;44.25;;;;;16.44;50.83;99179.53;5063467;28;8866;-78
2022/12/24 08:33:36;;;;;;;;;49.00;41.75;;;;;16.54;50.09;99180.09;5013275;28;8858;-78
2022/12/24 08:36:05;;;;;;;;;52.00;43.50;;;;;16.49;50.38;99179.41;5030003;28;8876;-81
2022/12/24 08:38:34;;;;;;;;;53.25;43.00;;;;;16.64;50.11;99181.56;5063442;28;8947;-79
2022/12/24 08:41:02;;;;;;;;;53.50;45.00;;;;;16.63;50.03;99181.59;5028310;28;8899;-78
2022/12/24 08:43:31;;;;;;;;;56.00;45.00;;;;;16.38;51.15;99179.72;5029439;28;8862;-78
2022/12/24 08:46:03;;;;;;;;;52.50;42.75;;;;;16.43;50.98;99187.50;5012731;28;8869;-77
2022/12/24 08:48:34;;;;;;;;;47.00;40.00;;;;;16.45;51.16;99190.94;5024670;28;8905;-83
2022/12/24 08:51:06;;;;;;;;;54.25;43.75;;;;;16.52;50.75;99168.75;5010986;28;8952;-78
2022/12/24 08:53:35;;;;;;;;;47.50;40.00;;;;;16.50;50.78;99175.84;5010819;28;8859;-80
2022/12/24 08:56:07;;;;;;;;;47.00;37.75;;;;;16.25;51.21;99179.22;5009239;28;9002;-79
2022/12/24 08:58:36;;;;;;;;;37.75;34.75;;;;;16.44;51.50;99181.31;5027787;28;8887;-78
2022/12/24 09:01:12;;;;;;;;;42.25;37.00;;;;;16.65;50.98;99187.69;4991228;28;8896;-78
2022/12/24 09:03:42;;;;;;;;;42.50;38.25;;;;;16.74;51.11;99185.59;5024681;28;9614;-77
2022/12/24 09:06:12;;;;;;;;;41.75;37.25;;;;;16.75;50.40;99184.72;5024738;28;9588;-80
2022/12/24 09:08:41;;;;;;;;;41.00;35.50;;;;;16.83;50.27;99191.56;5014929;28;8859;-81
2022/12/24 09:11:12;;;;;;;;;38.00;34.25;;;;;16.94;50.24;99177.13;5027394;28;8859;-77
2022/12/24 09:13:42;;;;;;;;;45.50;37.00;;;;;16.99;50.21;99170.84;5007878;28;8858;-79
2022/12/24 09:16:11;;;;;;;;;48.00;38.25;;;;;17.08;49.50;99171.38;5027969;28;8856;-79
2022/12/24 09:18:40;;;;;;;;;45.75;37.25;;;;;16.88;50.13;99171.16;5008162;28;8895;-80
2022/12/24 09:21:13;;;;;;;;;46.75;40.75;;;;;16.99;50.23;99178.72;5010340;28;8909;-80
2022/12/24 09:23:45;;;;;;;;;50.00;42.25;;;;;16.83;50.69;99187.13;5009598;28;8870;-79
2022/12/24 09:26:16;;;;;;;;;51.00;40.50;;;;;17.05;50.04;99189.06;5025641;28;8850;-77
2022/12/24 09:28:45;;;;;;;;;44.25;37.75;;;;;17.12;49.97;99191.44;5008977;28;8878;-79
2022/12/24 09:31:14;;;;;;;;;46.50;40.00;;;;;17.20;50.08;99203.50;5008602;28;8977;-80
2022/12/24 09:33:45;;;;;;;;;45.25;39.25;;;;;17.25;49.59;99199.81;5011642;28;8897;-78
2022/12/24 09:36:15;;;;;;;;;46.75;39.00;;;;;17.36;49.65;99210.00;5027718;28;8959;-77
2022/12/24 09:38:44;;;;;;;;;43.75;38.00;;;;;17.37;49.91;99222.25;5027284;28;8876;-78
2022/12/24 09:41:15;;;;;;;;;48.00;39.25;;;;;17.46;49.12;99214.03;5010734;28;8886;-81
2022/12/24 09:43:49;;;;;;;;;43.25;36.75;;;;;17.50;49.59;99213.03;5010085;28;8961;-81
2022/12/24 09:46:24;;;;;;;;;47.00;39.25;;;;;17.59;49.77;99218.91;5035836;28;8856;-80
2022/12/24 09:48:57;;;;;;;;;36.75;34.75;;;;;17.57;49.62;99211.03;5056783;28;9769;-80
2022/12/24 09:51:34;;;;;;;;;45.50;39.25;;;;;17.65;49.67;99223.97;5040403;28;8837;-78
2022/12/24 09:54:05;;;;;;;;;41.50;35.50;;;;;17.73;49.17;99222.78;5037113;28;8958;-78
2022/12/24 09:56:38;;;;;;;;;43.25;36.00;;;;;17.62;49.42;99221.44;5025559;28;8861;-78
2022/12/24 09:59:13;;;;;;;;;33.50;30.25;;;;;17.77;49.30;99227.94;5041983;28;8902;-80
2022/12/24 10:01:42;;;;;;;;;39.00;35.25;;;;;17.81;49.16;99222.50;5018109;28;8862;-77
2022/12/24 10:04:14;;;;;;;;;45.00;38.75;;;;;17.79;49.23;99237.53;5041420;28;8971;-79
2022/12/24 10:06:53;;;;;;;;;49.75;40.75;;;;;17.95;49.21;99237.03;5050759;28;8848;-81
2022/12/24 10:09:33;;;;;;;;;51.75;42.75;;;;;18.07;48.92;99245.38;5048347;28;8905;-82
2022/12/24 10:12:09;;;;;;;;;45.25;36.25;;;;;18.15;48.85;99241.56;5034839;28;8879;-80
2022/12/24 10:14:51;;;;;;;;;42.75;36.50;;;;;18.23;48.29;99250.06;4997612;28;8942;-81
2022/12/24 10:17:33;;;;;;;;;43.75;38.00;;;;;18.30;48.41;99257.72;5046137;28;8908;-80
2022/12/24 10:20:22;;;;;;;;;43.50;35.75;;;;;18.37;48.46;99250.41;5049973;28;8870;-81
2022/12/24 10:23:03;;;;;;;;;46.25;36.50;;;;;18.48;48.25;99245.59;5046813;28;9601;-79
2022/12/24 10:25:38;;;;;;;;;36.00;33.00;;;;;18.48;48.12;99242.09;5034258;28;8852;-80
2022/12/24 10:28:15;;;;;;;;;40.25;34.75;;;;;18.59;48.00;99245.19;5035892;28;8946;-81
2022/12/24 10:30:47;;;;;;;;;38.25;34.25;;;;;18.46;48.27;99244.78;5052463;28;8871;-80
2022/12/24 10:33:20;;;;;;;;;39.25;35.00;;;;;18.54;48.12;99249.78;5016050;28;8850;-79
2022/12/24 10:35:54;;;;;;;;;42.75;36.00;;;;;18.38;48.28;99259.22;5049138;28;8850;-80
2022/12/24 10:38:25;;;;;;;;;39.25;34.25;;;;;18.24;48.66;99254.41;5032538;28;8877;-79
2022/12/24 10:40:56;;;;;;;;;41.25;36.00;;;;;18.38;48.37;99251.28;5050266;28;8865;-80
2022/12/24 10:43:28;;;;;;;;;38.25;35.50;;;;;18.32;48.59;99270.88;5029094;28;8883;-80
2022/12/24 10:46:00;;;;;;;;;46.00;38.25;;;;;18.06;49.31;99264.72;5069310;28;9019;-82
2022/12/24 10:48:37;;;;;;;;;29.00;23.75;;;;;18.18;49.16;99267.84;5035773;28;8967;-79
2022/12/24 10:51:13;;;;;;;;;34.50;33.25;;;;;18.11;49.03;99269.88;5051952;28;8940;-81
2022/12/24 10:53:48;;;;;;;;;36.60;33.20;;;;;18.06;49.41;99258.59;5051740;28;8875;-81
2022/12/24 10:56:19;;;;;;;;;38.50;34.75;;;;;18.06;49.49;99264.72;5035311;28;8856;-79
2022/12/24 10:58:53;;;;;;;;;39.50;35.00;;;;;17.51;50.93;99267.47;5009899;28;8864;-82
2022/12/24 11:01:46;;;;;;;;;40.25;35.00;;;;;17.92;50.14;99259.97;5062650;28;8986;-81
2022/12/24 11:04:17;;;;;;;;;50.25;39.00;;;;;17.84;50.43;99261.09;5029800;28;8855;-80
2022/12/24 11:06:53;;;;;;;;;32.00;31.25;;;;;17.95;49.89;99266.88;5012930;28;8998;-81
2022/12/24 11:09:26;;;;;;;;;37.50;34.75;;;;;17.20;51.44;99269.38;5014368;28;8859;-80
2022/12/24 11:11:56;;;;;;;;;37.50;34.50;;;;;17.48;50.58;99272.84;5029867;28;9017;-81
2022/12/24 11:14:34;;;;;;;;;35.60;32.60;;;;;17.67;50.46;99274.88;5011746;28;8867;-81
2022/12/24 11:17:05;;;;;;;;;36.50;33.50;;;;;17.74;50.17;99268.47;5029183;28;8952;-81
2022/12/24 11:19:37;;;;;;;;;33.75;30.50;;;;;17.69;50.41;99276.56;5029614;28;8868;-82
2022/12/24 11:22:16;;;;;;;;;37.60;35.00;;;;;17.48;51.51;99274.63;5031059;28;8836;-81
2022/12/24 11:24:58;;;;;;;;;35.25;33.50;;;;;17.73;50.78;99278.16;5029421;28;8843;-82
2022/12/24 11:27:34;;;;;;;;;41.25;35.00;;;;;17.87;50.76;99272.44;5021798;28;8966;-79
2022/12/24 11:30:21;;;;;;;;;47.75;40.75;;;;;18.03;50.88;99275.38;5027888;28;8848;-79
2022/12/24 11:33:05;;;;;;;;;42.50;35.50;;;;;17.98;51.21;99273.84;4995255;28;8848;-80
2022/12/24 11:35:40;;;;;;;;;39.75;35.25;;;;;18.08;51.27;99276.09;5010959;28;8856;-80
2022/12/24 11:38:12;;;;;;;;;48.00;38.50;;;;;18.08;51.08;99276.09;5044448;28;8864;-80
2022/12/24 11:40:44;;;;;;;;;50.50;41.25;;;;;18.20;50.81;99271.28;5030737;28;8848;-82
2022/12/24 11:43:16;;;;;;;;;52.50;42.75;;;;;17.81;51.37;99267.34;4978443;28;9094;-79
2022/12/24 11:45:50;;;;;;;;;51.00;43.50;;;;;18.03;51.01;99263.97;4994087;28;8829;-82
2022/12/24 11:48:30;;;;;;;;;50.75;41.75;;;;;18.19;51.27;99264.31;5015966;28;8862;-79
2022/12/24 11:51:00;;;;;;;;;51.00;41.25;;;;;18.08;51.10;99270.81;5030281;28;8924;-80